Time;durP1;ratioP1;P1;durP2;ratioP2;P2;SDS_P1;SDS_P2;PMS_P1;PMS_P2;Temp;Humidity;BMP_temperature;BMP_pressure;BME280_temperature;BME280_humidity;BME280_pressure;Samples;Min_cycle;Max_cycle;Signal;HPM_P1;HPM_P2
2022/05/24 00:01:07;;;;;;;11.98;9.88;;;16.80;99.90;;;;;;5065032;28;20266;-80
2022/05/24 00:03:34;;;;;;;14.07;10.07;;;16.70;99.90;;;;;;5062855;28;20245;-81
2022/05/24 00:06:00;;;;;;;12.43;11.33;;;16.70;99.90;;;;;;5066940;28;20480;-81
2022/05/24 00:08:27;;;;;;;13.80;12.40;;;16.60;99.90;;;;;;5069577;28;20477;-80
2022/05/24 00:10:54;;;;;;;15.25;13.65;;;16.50;99.90;;;;;;5065247;28;20197;-81
2022/05/24 00:13:23;;;;;;;16.33;14.20;;;16.40;99.90;;;;;;5065395;28;20303;-81
2022/05/24 00:15:50;;;;;;;14.82;13.27;;;16.30;99.90;;;;;;5062302;28;20726;-81
2022/05/24 00:18:19;;;;;;;13.52;12.32;;;16.30;99.90;;;;;;5064128;28;20262;-80
2022/05/24 00:20:48;;;;;;;12.90;11.32;;;16.30;99.90;;;;;;5069271;28;20547;-81
2022/05/24 00:23:15;;;;;;;12.68;11.52;;;16.20;99.90;;;;;;5064232;28;20432;-81
2022/05/24 00:25:45;;;;;;;13.13;11.93;;;16.20;99.90;;;;;;5065323;28;20278;-80
2022/05/24 00:28:13;;;;;;;15.30;13.02;;;16.20;99.90;;;;;;5068092;28;20606;-82
2022/05/24 00:30:42;;;;;;;15.57;14.02;;;16.20;99.90;;;;;;5068198;28;20271;-81
2022/05/24 00:33:09;;;;;;;14.05;12.68;;;16.10;99.90;;;;;;5066275;28;20299;-80
2022/05/24 00:35:37;;;;;;;13.05;11.75;;;16.20;99.90;;;;;;5064183;28;20260;-80
2022/05/24 00:38:05;;;;;;;14.35;13.05;;;16.10;99.90;;;;;;5063023;28;20781;-81
2022/05/24 00:40:43;;;;;;;14.25;12.88;;;16.00;99.90;;;;;;5056972;28;20196;-80
2022/05/24 00:43:14;;;;;;;14.27;12.98;;;16.00;99.90;;;;;;5064312;28;20231;-80
2022/05/24 00:45:47;;;;;;;13.82;12.15;;;16.00;99.90;;;;;;5074315;28;20226;-79
2022/05/24 00:48:21;;;;;;;12.90;11.60;;;15.90;99.90;;;;;;5074712;28;20227;-79
2022/05/24 00:50:51;;;;;;;13.20;11.50;;;15.80;99.90;;;;;;5063322;28;20712;-80
2022/05/24 00:53:22;;;;;;;14.68;12.50;;;15.80;99.90;;;;;;5061968;28;20204;-80
2022/05/24 00:55:54;;;;;;;13.25;11.82;;;15.90;99.90;;;;;;5066914;28;20264;-79
2022/05/24 00:58:32;;;;;;;13.48;12.18;;;15.80;99.90;;;;;;5069457;28;20215;-79
2022/05/24 01:01:05;;;;;;;16.13;13.60;;;15.80;99.90;;;;;;5060281;28;20214;-81
2022/05/24 01:03:32;;;;;;;15.75;13.45;;;15.80;99.90;;;;;;5064896;28;20287;-80
2022/05/24 01:05:58;;;;;;;15.23;13.18;;;15.80;99.90;;;;;;5061411;28;20220;-81
2022/05/24 01:08:26;;;;;;;18.08;15.05;;;15.70;99.90;;;;;;5065735;28;20302;-80
2022/05/24 01:10:54;;;;;;;17.73;14.32;;;15.70;99.90;;;;;;5063927;28;20696;-81
2022/05/24 01:13:24;;;;;;;17.77;15.40;;;15.70;99.90;;;;;;5062115;28;20244;-81
2022/05/24 01:15:52;;;;;;;15.35;13.85;;;15.70;99.90;;;;;;5067579;28;20202;-80
2022/05/24 01:18:23;;;;;;;18.48;14.18;;;15.70;99.90;;;;;;5071194;28;20254;-80
2022/05/24 01:20:56;;;;;;;16.65;14.98;;;15.70;99.90;;;;;;5067493;28;20256;-80
2022/05/24 01:23:36;;;;;;;13.65;12.23;;;15.70;99.90;;;;;;5071496;28;20201;-79
2022/05/24 01:26:11;;;;;;;18.38;13.02;;;15.60;99.90;;;;;;5079501;28;20187;-79
2022/05/24 01:28:43;;;;;;;16.92;13.63;;;15.60;99.90;;;;;;5079323;28;20246;-78
2022/05/24 01:31:10;;;;;;;14.35;12.82;;;15.60;99.90;;;;;;5074294;28;20201;-80
2022/05/24 01:36:26;;;;;;;15.18;13.68;;;15.60;99.90;;;;;;5071881;28;20223;-78
2022/05/24 01:38:57;;;;;;;13.13;11.73;;;15.60;99.90;;;;;;5085986;28;20253;-78
2022/05/24 01:41:27;;;;;;;16.73;12.70;;;15.70;99.90;;;;;;5074601;28;20258;-78
2022/05/24 01:43:56;;;;;;;14.27;12.75;;;15.60;99.90;;;;;;5078935;28;20278;-79
2022/05/24 01:46:30;;;;;;;13.50;11.82;;;15.50;99.90;;;;;;5075579;28;20299;-79
2022/05/24 01:49:02;;;;;;;15.23;12.80;;;15.60;99.90;;;;;;5072622;28;20286;-80
2022/05/24 01:51:34;;;;;;;14.27;10.38;;;15.60;99.90;;;;;;5066208;28;20200;-80
2022/05/24 01:54:03;;;;;;;13.85;11.80;;;15.60;99.90;;;;;;5070651;28;20225;-79
2022/05/24 01:56:45;;;;;;;10.30;9.20;;;15.60;99.90;;;;;;5069046;28;20255;-78
2022/05/24 01:59:14;;;;;;;11.70;10.30;;;15.60;99.90;;;;;;5066740;28;20223;-79
2022/05/24 02:01:48;;;;;;;11.02;9.52;;;15.60;99.90;;;;;;5069720;28;20238;-78
2022/05/24 02:04:16;;;;;;;12.88;9.30;;;15.50;99.90;;;;;;5069770;28;20204;-80
2022/05/24 02:06:43;;;;;;;10.25;8.75;;;15.50;99.90;;;;;;5085969;28;20207;-80
2022/05/24 02:09:12;;;;;;;10.18;9.18;;;15.50;99.90;;;;;;5065544;28;20240;-79
2022/05/24 02:11:39;;;;;;;11.93;8.45;;;15.50;99.90;;;;;;5069389;28;20229;-78
2022/05/24 02:14:12;;;;;;;9.27;8.38;;;15.50;99.90;;;;;;5069988;28;20199;-78
2022/05/24 02:16:47;;;;;;;9.80;8.80;;;15.50;99.90;;;;;;5066694;28;20272;-79
2022/05/24 02:19:16;;;;;;;9.27;8.38;;;15.50;99.90;;;;;;5067457;28;20226;-79
2022/05/24 02:21:46;;;;;;;10.60;8.32;;;15.50;99.90;;;;;;5068891;28;20215;-79
2022/05/24 02:24:19;;;;;;;10.85;9.38;;;15.50;99.90;;;;;;5072290;28;20203;-79
2022/05/24 02:26:47;;;;;;;11.55;10.25;;;15.50;99.90;;;;;;5082116;28;20205;-79
2022/05/24 02:29:14;;;;;;;12.93;11.30;;;15.40;99.90;;;;;;5069957;28;20482;-79
2022/05/24 02:31:43;;;;;;;13.10;9.68;;;15.50;99.90;;;;;;5070189;28;20196;-80
2022/05/24 02:34:10;;;;;;;11.48;9.25;;;15.50;99.90;;;;;;5071056;28;20201;-81
2022/05/24 02:36:37;;;;;;;10.38;9.32;;;15.40;99.90;;;;;;5070741;28;20657;-79
2022/05/24 02:39:05;;;;;;;8.90;7.97;;;15.40;99.90;;;;;;5069735;28;20307;-81
2022/05/24 02:41:32;;;;;;;10.50;9.48;;;15.60;99.90;;;;;;5069906;28;20213;-78
2022/05/24 02:44:01;;;;;;;10.38;9.27;;;15.40;99.90;;;;;;5067394;28;20223;-79
2022/05/24 02:46:30;;;;;;;9.27;8.27;;;15.30;99.90;;;;;;5069073;28;20227;-80
2022/05/24 02:48:58;;;;;;;9.07;7.53;;;15.30;99.90;;;;;;5066944;28;20648;-81
2022/05/24 02:51:26;;;;;;;8.90;8.00;;;15.20;99.90;;;;;;5061956;28;20211;-80
2022/05/24 02:53:54;;;;;;;8.63;6.43;;;15.20;99.90;;;;;;5061480;28;20581;-82
2022/05/24 02:56:21;;;;;;;13.88;6.97;;;15.30;99.90;;;;;;5063186;28;20222;-81
2022/05/24 02:58:48;;;;;;;11.50;8.27;;;15.20;99.90;;;;;;5058937;28;20234;-79
2022/05/24 03:01:19;;;;;;;7.80;6.63;;;15.20;99.90;;;;;;5058405;28;20299;-81
2022/05/24 03:03:46;;;;;;;9.13;7.30;;;15.20;99.90;;;;;;5063819;28;20222;-82
2022/05/24 03:06:14;;;;;;;7.45;6.75;;;15.10;99.90;;;;;;5068667;28;20203;-80
2022/05/24 03:11:26;;;;;;;7.70;7.00;;;15.20;99.90;;;;;;5054480;28;20198;-79
2022/05/24 03:16:37;;;;;;;14.05;8.45;;;15.20;99.90;;;;;;5066661;28;20198;-80
2022/05/24 03:19:05;;;;;;;8.43;7.55;;;15.20;99.90;;;;;;5072536;28;20224;-80
2022/05/24 03:21:33;;;;;;;14.07;9.48;;;15.30;99.90;;;;;;5068772;28;20209;-79
2022/05/24 03:24:00;;;;;;;12.20;10.88;;;15.20;99.90;;;;;;5071409;28;20279;-80
2022/05/24 03:26:27;;;;;;;16.92;11.05;;;15.10;99.90;;;;;;5067754;28;20207;-81
2022/05/24 03:28:54;;;;;;;12.18;10.88;;;15.10;99.90;;;;;;5065363;28;20227;-81
2022/05/24 03:31:21;;;;;;;13.30;10.13;;;15.20;99.90;;;;;;5067635;28;20257;-79
2022/05/24 03:33:48;;;;;;;10.82;8.65;;;15.20;99.90;;;;;;5069933;28;20230;-80
2022/05/24 03:36:15;;;;;;;11.50;9.90;;;15.10;99.90;;;;;;5061416;28;20228;-80
2022/05/24 03:38:43;;;;;;;13.70;10.40;;;15.10;99.90;;;;;;5063629;28;20260;-81
2022/05/24 03:41:10;;;;;;;11.57;10.48;;;15.10;99.90;;;;;;5051406;28;20275;-81
2022/05/24 03:43:37;;;;;;;10.38;9.27;;;15.00;99.90;;;;;;5060891;28;20294;-81
2022/05/24 03:46:06;;;;;;;15.65;10.45;;;15.00;99.90;;;;;;5054287;28;20269;-80
2022/05/24 03:48:33;;;;;;;11.77;10.57;;;14.90;99.90;;;;;;5063148;28;20230;-80
2022/05/24 03:51:00;;;;;;;12.60;10.60;;;14.90;99.90;;;;;;5059785;28;20259;-80
2022/05/24 03:53:28;;;;;;;12.07;10.75;;;14.90;99.90;;;;;;5062008;28;20198;-80
2022/05/24 03:55:56;;;;;;;12.73;10.75;;;15.00;99.90;;;;;;5072422;28;20285;-80
2022/05/24 03:58:24;;;;;;;12.60;11.40;;;14.90;99.90;;;;;;5056081;28;20223;-78
2022/05/24 04:00:52;;;;;;;13.00;11.35;;;15.00;99.90;;;;;;5076055;28;20200;-80
2022/05/24 04:03:19;;;;;;;12.82;11.00;;;15.10;99.90;;;;;;5067873;28;20486;-81
2022/05/24 04:05:47;;;;;;;11.80;10.57;;;15.00;99.90;;;;;;5070422;28;20203;-81
2022/05/24 04:08:17;;;;;;;10.85;9.82;;;15.10;99.90;;;;;;5083736;28;20207;-79
2022/05/24 04:10:44;;;;;;;13.13;11.73;;;15.00;99.90;;;;;;5097510;28;20190;-79
2022/05/24 04:13:12;;;;;;;12.73;10.82;;;15.00;99.90;;;;;;5098005;28;20190;-80
2022/05/24 04:15:39;;;;;;;19.42;13.18;;;14.90;99.90;;;;;;5098305;28;20209;-80
2022/05/24 04:18:17;;;;;;;14.13;10.88;;;14.90;99.90;;;;;;5098006;28;20214;-79
2022/05/24 04:20:44;;;;;;;12.88;11.65;;;14.90;99.90;;;;;;5092002;28;20247;-80
2022/05/24 04:23:14;;;;;;;13.05;11.85;;;14.90;99.90;;;;;;5088375;28;20282;-80
2022/05/24 04:25:41;;;;;;;13.20;11.85;;;14.90;99.90;;;;;;5086452;28;20234;-80
2022/05/24 04:28:08;;;;;;;13.20;11.93;;;15.00;99.90;;;;;;5099570;28;20223;-80
2022/05/24 04:30:36;;;;;;;12.25;10.95;;;14.90;99.90;;;;;;5099748;28;20190;-80
2022/05/24 04:33:04;;;;;;;11.98;10.60;;;14.90;99.90;;;;;;5100005;28;20217;-80
2022/05/24 04:35:31;;;;;;;12.20;11.05;;;14.90;99.90;;;;;;5099255;28;20230;-81
2022/05/24 04:38:00;;;;;;;11.57;10.48;;;15.00;99.90;;;;;;5082425;28;20220;-80
2022/05/24 04:43:19;;;;;;;16.20;12.45;;;15.10;99.90;;;;;;5080131;28;20214;-80
2022/05/24 04:45:47;;;;;;;11.50;10.40;;;15.10;99.90;;;;;;5080477;28;20200;-79
2022/05/24 04:48:14;;;;;;;12.45;10.85;;;15.20;99.90;;;;;;5080698;28;20207;-79
2022/05/24 04:50:41;;;;;;;11.65;9.05;;;15.20;99.90;;;;;;5080359;28;20198;-78
2022/05/24 04:53:08;;;;;;;11.23;10.07;;;15.20;99.90;;;;;;5080563;28;20210;-80
2022/05/24 04:55:35;;;;;;;11.35;9.48;;;15.40;99.90;;;;;;5080559;28;20191;-80
2022/05/24 04:58:02;;;;;;;12.63;11.13;;;15.50;99.90;;;;;;5080735;28;20216;-80
2022/05/24 05:00:48;;;;;;;10.38;9.32;;;15.60;99.90;;;;;;5080041;28;20278;-80
2022/05/24 05:03:17;;;;;;;11.38;10.18;;;15.70;99.90;;;;;;5079711;28;20212;-79
2022/05/24 05:05:44;;;;;;;12.55;9.88;;;15.80;99.90;;;;;;5080014;28;20226;-79
2022/05/24 05:08:12;;;;;;;11.43;10.27;;;15.80;99.90;;;;;;5077961;28;20267;-81
2022/05/24 05:10:39;;;;;;;11.40;9.38;;;16.00;99.90;;;;;;5080306;28;20177;-81
2022/05/24 05:13:06;;;;;;;11.85;10.20;;;15.90;99.90;;;;;;5078447;28;20293;-82
2022/05/24 05:15:34;;;;;;;13.68;9.80;;;15.90;99.90;;;;;;5078628;28;20260;-82
2022/05/24 05:18:15;;;;;;;10.40;9.35;;;16.10;99.90;;;;;;5065524;28;20281;-82
2022/05/24 05:20:43;;;;;;;11.23;10.13;;;16.40;99.90;;;;;;5060405;28;20241;-82
2022/05/24 05:23:12;;;;;;;15.27;9.57;;;16.50;99.90;;;;;;5059575;28;20209;-81
2022/05/24 05:25:41;;;;;;;13.05;10.77;;;16.70;99.90;;;;;;5059886;28;20265;-82
2022/05/24 05:28:27;;;;;;;10.35;9.35;;;16.60;99.90;;;;;;5059946;28;20212;-81
2022/05/24 05:33:40;;;;;;;10.10;9.10;;;16.60;99.90;;;;;;5058758;28;20177;-83
2022/05/24 05:36:07;;;;;;;17.95;11.55;;;16.70;99.90;;;;;;5058376;28;20231;-84
2022/05/24 05:38:34;;;;;;;13.50;11.13;;;16.70;99.90;;;;;;5056174;28;20225;-82
2022/05/24 05:41:04;;;;;;;12.23;10.45;;;16.90;99.90;;;;;;5055550;28;20195;-82
2022/05/24 05:43:31;;;;;;;14.55;13.00;;;16.80;99.90;;;;;;5054932;28;20208;-82
2022/05/24 05:46:00;;;;;;;11.35;10.25;;;16.70;99.90;;;;;;5053094;28;20196;-79
2022/05/24 05:48:27;;;;;;;15.85;11.93;;;16.70;99.90;;;;;;5051951;28;20225;-80
2022/05/24 05:50:56;;;;;;;15.05;13.43;;;16.70;99.90;;;;;;5054522;28;20236;-80
2022/05/24 05:53:23;;;;;;;15.43;11.63;;;16.60;99.90;;;;;;5052913;28;20221;-81
2022/05/24 05:55:50;;;;;;;15.00;13.50;;;16.60;99.90;;;;;;5050115;28;20229;-83
2022/05/24 05:58:17;;;;;;;13.90;12.55;;;16.60;99.90;;;;;;5070268;28;20500;-81
2022/05/24 06:00:44;;;;;;;23.47;14.07;;;16.60;99.90;;;;;;5067863;28;20213;-81
2022/05/24 06:03:11;;;;;;;16.17;14.50;;;16.70;99.90;;;;;;5067096;28;20509;-81
2022/05/24 06:05:38;;;;;;;15.87;14.37;;;16.90;99.90;;;;;;5075144;28;20240;-81
2022/05/24 06:08:08;;;;;;;17.87;15.30;;;17.00;99.90;;;;;;5084495;28;20527;-82
2022/05/24 06:10:36;;;;;;;15.63;13.80;;;17.50;99.90;;;;;;5086067;28;20817;-81
2022/05/24 06:13:03;;;;;;;17.67;15.77;;;17.90;99.90;;;;;;5084631;28;20440;-80
2022/05/24 06:15:31;;;;;;;17.33;15.60;;;17.90;99.90;;;;;;5070316;28;20484;-82
2022/05/24 06:17:59;;;;;;;16.17;14.57;;;17.80;99.90;;;;;;5069306;28;20477;-82
2022/05/24 06:20:29;;;;;;;16.93;15.23;;;17.80;99.90;;;;;;5067215;28;20517;-84
2022/05/24 06:22:57;;;;;;;23.33;16.83;;;17.80;99.90;;;;;;5071570;28;20476;-81
2022/05/24 06:25:27;;;;;;;19.77;17.53;;;17.70;99.90;;;;;;5071421;28;20505;-83
2022/05/24 06:27:55;;;;;;;20.27;17.60;;;17.80;99.90;;;;;;5069880;28;20500;-83
2022/05/24 06:30:23;;;;;;;27.87;18.57;;;17.70;99.90;;;;;;5070338;28;20474;-84
2022/05/24 06:32:51;;;;;;;23.10;18.77;;;17.90;99.90;;;;;;5066212;28;20470;-83
2022/05/24 06:35:20;;;;;;;21.17;17.80;;;18.00;99.90;;;;;;5068334;28;20422;-82
2022/05/24 06:37:48;;;;;;;21.13;18.87;;;18.10;99.90;;;;;;5067096;28;20468;-81
2022/05/24 06:40:18;;;;;;;22.40;19.97;;;18.30;99.90;;;;;;5077486;28;20501;-82
2022/05/24 06:42:47;;;;;;;24.83;20.50;;;18.10;99.90;;;;;;5080129;28;20534;-81
2022/05/24 06:45:14;;;;;;;21.60;19.20;;;18.10;99.90;;;;;;5064234;28;20545;-81
2022/05/24 06:47:41;;;;;;;25.07;19.30;;;18.30;99.90;;;;;;5059301;28;20497;-81
2022/05/24 06:50:09;;;;;;;24.73;20.53;;;18.20;99.90;;;;;;5059610;28;20453;-81
2022/05/24 06:52:37;;;;;;;24.53;18.23;;;18.00;99.90;;;;;;5063432;28;20445;-80
2022/05/24 06:55:04;;;;;;;26.20;20.43;;;18.10;99.90;;;;;;5064809;28;20449;-80
2022/05/24 06:57:31;;;;;;;23.90;19.50;;;17.90;99.90;;;;;;5056118;28;20544;-81
2022/05/24 07:02:44;;;;;;;23.43;18.63;;;18.20;99.90;;;;;;5072772;28;20436;-81
2022/05/24 07:05:13;;;;;;;24.53;19.50;;;18.20;99.90;;;;;;5072374;28;20844;-80
2022/05/24 07:07:41;;;;;;;24.50;18.50;;;18.50;99.90;;;;;;5066709;28;20473;-81
2022/05/24 07:10:13;;;;;;;19.90;17.67;;;18.80;99.90;;;;;;5071490;28;20468;-81
2022/05/24 07:12:40;;;;;;;22.80;20.30;;;19.10;99.90;;;;;;5082206;28;20478;-79
2022/05/24 07:15:09;;;;;;;24.00;18.43;;;19.10;99.90;;;;;;5064272;28;20451;-82
2022/05/24 07:17:37;;;;;;;20.33;17.97;;;19.10;99.90;;;;;;5065709;28;20466;-79
2022/05/24 07:20:05;;;;;;;23.87;17.57;;;19.70;99.90;;;;;;5075787;28;20509;-81
2022/05/24 07:22:32;;;;;;;22.70;17.10;;;20.30;99.90;;;;;;5081825;28;20524;-82
2022/05/24 07:24:59;;;;;;;19.60;17.33;;;21.00;99.90;;;;;;5076882;28;20488;-80
2022/05/24 07:27:26;;;;;;;21.10;17.00;;;21.10;99.90;;;;;;5056372;28;20474;-82
2022/05/24 07:29:53;;;;;;;23.13;20.47;;;20.90;99.90;;;;;;5067721;28;20477;-81
2022/05/24 07:32:21;;;;;;;21.47;17.53;;;20.60;99.90;;;;;;5070210;28;20459;-82
2022/05/24 07:34:48;;;;;;;22.33;19.77;;;20.20;99.90;;;;;;5068349;28;20506;-83
2022/05/24 07:37:17;;;;;;;20.17;17.20;;;19.90;99.90;;;;;;5066778;28;20739;-81
2022/05/24 07:39:43;;;;;;;19.50;17.40;;;19.80;99.90;;;;;;5067342;28;20465;-81
2022/05/24 07:47:40;;;;;;;23.80;18.90;;;19.10;99.90;;;;;;5061236;28;20472;-83
2022/05/24 07:50:08;;;;;;;23.47;19.63;;;18.60;99.90;;;;;;5063085;28;20519;-81
2022/05/24 07:52:35;;;;;;;22.77;20.23;;;18.20;99.90;;;;;;5052572;28;20473;-82
2022/05/24 07:55:03;;;;;;;24.77;19.77;;;18.00;99.90;;;;;;5067686;28;20492;-80
2022/05/24 07:57:30;;;;;;;28.50;22.80;;;17.80;99.90;;;;;;5070131;28;21003;-81
2022/05/24 07:59:56;;;;;;;28.95;23.63;;;17.50;99.90;;;;;;5061391;28;20511;-80
2022/05/24 08:02:24;;;;;;;28.13;24.17;;;17.20;99.90;;;;;;5057049;28;20277;-80
2022/05/24 08:04:55;;;;;;;30.48;26.08;;;17.00;99.90;;;;;;5063919;28;20225;-82
2022/05/24 08:07:22;;;;;;;29.95;26.30;;;16.70;99.90;;;;;;5060078;28;20220;-79
2022/05/24 08:09:49;;;;;;;33.95;26.80;;;16.50;99.90;;;;;;5064757;28;20224;-80
2022/05/24 08:12:16;;;;;;;30.65;24.63;;;16.30;99.90;;;;;;5070452;28;20565;-80
2022/05/24 08:14:43;;;;;;;36.72;28.30;;;16.10;99.90;;;;;;5070373;28;20264;-81
2022/05/24 08:17:10;;;;;;;36.78;30.45;;;16.20;99.90;;;;;;5069486;28;20280;-82
2022/05/24 08:19:37;;;;;;;40.33;29.10;;;16.10;99.90;;;;;;5061403;28;20199;-81
2022/05/24 08:22:06;;;;;;;32.50;24.17;;;16.10;99.90;;;;;;5067683;28;20210;-81
2022/05/24 08:24:33;;;;;;;32.38;27.10;;;16.10;99.90;;;;;;5065036;28;20283;-81
2022/05/24 08:27:00;;;;;;;33.40;28.92;;;16.10;99.90;;;;;;5067619;28;20210;-80
2022/05/24 08:29:27;;;;;;;33.13;28.23;;;16.10;99.90;;;;;;5068604;28;20292;-82
2022/05/24 08:31:54;;;;;;;32.47;26.80;;;16.20;99.90;;;;;;5059888;28;20272;-80
2022/05/24 08:34:21;;;;;;;31.13;24.00;;;16.20;99.90;;;;;;5064541;28;20263;-80
2022/05/24 08:36:48;;;;;;;31.35;25.40;;;16.20;99.90;;;;;;5066136;28;20196;-80
2022/05/24 08:39:16;;;;;;;27.80;24.70;;;16.20;99.90;;;;;;5058496;28;20230;-80
2022/05/24 08:41:57;;;;;;;32.30;23.70;;;16.00;99.90;;;;;;5055827;28;20202;-80
2022/05/24 08:50:32;;;;;;;31.00;23.05;;;16.00;99.90;;;;;;5001605;28;20193;-79
2022/05/24 08:53:04;;;;;;;26.25;23.55;;;15.70;99.90;;;;;;5050022;28;20263;-80
2022/05/24 08:55:34;;;;;;;25.27;21.17;;;15.70;99.90;;;;;;5066325;28;20227;-80
2022/05/24 08:58:02;;;;;;;33.20;23.13;;;15.70;99.90;;;;;;5063283;28;20413;-80
2022/05/24 09:00:34;;;;;;;25.73;20.92;;;15.60;99.90;;;;;;5064400;28;20679;-80
2022/05/24 09:03:04;;;;;;;28.25;23.58;;;15.70;99.90;;;;;;5053780;28;20207;-79
2022/05/24 09:05:36;;;;;;;22.08;17.67;;;15.70;99.90;;;;;;5065145;28;20218;-80
2022/05/24 09:08:27;;;;;;;21.33;19.05;;;15.50;99.90;;;;;;5065130;28;20284;-82
2022/05/24 09:11:07;;;;;;;17.40;15.55;;;15.40;99.90;;;;;;5058823;28;20239;-80
2022/05/24 09:14:09;;;;;;;15.65;13.55;;;15.40;99.90;;;;;;5062996;28;20226;-79
2022/05/24 09:16:47;;;;;;;26.52;17.17;;;15.40;99.90;;;;;;5055277;28;20199;-82
2022/05/24 09:19:20;;;;;;;16.92;15.20;;;15.40;99.90;;;;;;5066497;28;20242;-79
2022/05/24 09:21:51;;;;;;;16.30;14.70;;;15.50;99.90;;;;;;5083442;28;20251;-78
2022/05/24 09:24:27;;;;;;;21.23;15.27;;;15.60;99.90;;;;;;5078382;28;20235;-80
2022/05/24 09:27:09;;;;;;;18.48;16.10;;;15.60;99.90;;;;;;5084407;28;20226;-79
2022/05/24 09:29:37;;;;;;;19.02;15.05;;;15.60;99.90;;;;;;5073678;28;20206;-81
2022/05/24 09:32:09;;;;;;;15.73;14.13;;;15.70;99.90;;;;;;5066944;28;20261;-83
2022/05/24 09:34:39;;;;;;;20.25;13.32;;;15.80;99.90;;;;;;5071187;23;20315;-69
2022/05/24 09:37:10;;;;;;;17.58;15.77;;;15.80;99.90;;;;;;5054759;28;20203;-69
2022/05/24 09:39:39;;;;;;;17.38;13.63;;;15.80;99.90;;;;;;5054154;28;20295;-70
2022/05/24 09:42:13;;;;;;;18.80;13.13;;;16.00;99.90;;;;;;5051635;28;20199;-68
2022/05/24 09:44:47;;;;;;;18.60;13.85;;;15.90;99.90;;;;;;5043574;28;20226;-69
2022/05/24 09:47:27;;;;;;;15.75;13.02;;;15.90;99.90;;;;;;5050294;28;20224;-69
2022/05/24 09:49:55;;;;;;;17.10;13.93;;;15.90;99.90;;;;;;5051875;28;20206;-70
2022/05/24 09:52:22;;;;;;;15.25;13.70;;;16.30;99.90;;;;;;5052152;28;20666;-69
2022/05/24 09:54:55;;;;;;;14.82;12.80;;;16.60;99.90;;;;;;5051754;28;20215;-71
2022/05/24 09:57:32;;;;;;;16.63;12.95;;;16.90;99.90;;;;;;5051058;28;20236;-70
2022/05/24 10:00:06;;;;;;;15.00;12.68;;;17.00;99.90;;;;;;5051995;28;20609;-70
2022/05/24 10:02:38;;;;;;;13.75;12.35;;;17.20;99.90;;;;;;5050810;28;20205;-70
2022/05/24 10:05:17;;;;;;;17.17;14.10;;;17.20;99.90;;;;;;5056614;28;20312;-70
2022/05/24 10:07:56;;;;;;;14.80;13.30;;;17.10;99.90;;;;;;5048723;28;20441;-69
2022/05/24 10:10:29;;;;;;;16.03;12.43;;;17.30;99.90;;;;;;5053070;28;20449;-69
2022/05/24 10:13:08;;;;;;;17.40;13.70;;;17.60;99.90;;;;;;5054091;28;20448;-70
2022/05/24 10:15:41;;;;;;;15.63;14.03;;;17.60;99.90;;;;;;5053356;28;20658;-69
2022/05/24 10:18:29;;;;;;;13.60;12.17;;;17.60;99.90;;;;;;5055847;28;20874;-70
2022/05/24 10:21:07;;;;;;;14.60;11.87;;;17.80;99.90;;;;;;5053171;28;20545;-70
2022/05/24 10:23:42;;;;;;;12.23;10.77;;;17.80;99.90;;;;;;5052051;28;20438;-69
2022/05/24 10:26:18;;;;;;;16.73;12.47;;;18.00;99.90;;;;;;5052019;28;20576;-69
2022/05/24 10:28:59;;;;;;;12.43;10.60;;;18.40;99.90;;;;;;5050338;28;20540;-70
2022/05/24 10:31:37;;;;;;;15.77;11.30;;;19.30;99.90;;;;;;5049047;28;20597;-68
2022/05/24 10:40:04;;;;;;;12.23;11.00;;;20.40;99.90;;;;;;5052263;28;20479;-68
2022/05/24 10:42:44;;;;;;;14.20;11.60;;;19.90;99.90;;;;;;5050500;28;20875;-69
2022/05/24 10:45:17;;;;;;;12.50;11.20;;;19.40;99.90;;;;;;5050388;28;20494;-69
2022/05/24 10:47:49;;;;;;;12.57;11.30;;;19.20;99.90;;;;;;5048214;28;20450;-69
2022/05/24 10:50:20;;;;;;;11.53;10.43;;;18.90;99.90;;;;;;5052703;28;20545;-70
2022/05/24 10:53:13;;;;;;;12.07;10.10;;;19.10;99.90;;;;;;5053509;28;20804;-70
2022/05/24 10:55:45;;;;;;;10.93;9.93;;;19.10;99.90;;;;;;5047542;28;20470;-70
2022/05/24 10:58:19;;;;;;;12.10;9.50;;;19.00;99.90;;;;;;5048155;28;20536;-70
2022/05/24 11:00:51;;;;;;;11.90;9.37;;;19.10;99.90;;;;;;5044062;28;20499;-70
2022/05/24 11:03:20;;;;;;;11.33;9.20;;;19.40;99.90;;;;;;5060299;28;20849;-72
2022/05/24 11:05:53;;;;;;;10.20;8.30;;;19.60;99.90;;;;;;5050590;28;20491;-72
2022/05/24 11:08:33;;;;;;;9.47;8.47;;;20.20;99.90;;;;;;5052747;28;20445;-71
2022/05/24 11:11:06;;;;;;;10.00;9.00;;;20.10;99.90;;;;;;5051135;28;20520;-70
2022/05/24 11:13:45;;;;;;;7.50;6.80;;;19.90;99.90;;;;;;5046497;28;20458;-73
2022/05/24 11:16:19;;;;;;;8.33;7.17;;;19.90;99.90;;;;;;5044615;28;20503;-71
2022/05/24 11:18:47;;;;;;;12.77;8.13;;;19.60;99.90;;;;;;5048591;28;20527;-73
2022/05/24 11:21:26;;;;;;;15.43;7.73;;;19.30;99.90;;;;;;5041237;28;20443;-72
2022/05/24 11:23:58;;;;;;;10.97;7.50;;;18.60;99.90;;;;;;5038024;28;20450;-72
2022/05/24 11:26:28;;;;;;;10.43;7.10;;;18.20;99.90;;;;;;5039679;28;20532;-72
2022/05/24 11:28:58;;;;;;;8.97;6.87;;;18.00;99.90;;;;;;5044492;28;20441;-73
2022/05/24 11:31:37;;;;;;;7.77;6.37;;;18.20;99.90;;;;;;5046037;28;20453;-72
2022/05/24 11:34:13;;;;;;;8.97;6.97;;;18.60;99.90;;;;;;5051246;28;20545;-73
2022/05/24 11:36:43;;;;;;;12.13;6.90;;;18.90;99.90;;;;;;5047021;28;20556;-71
2022/05/24 11:39:24;;;;;;;11.77;9.20;;;19.00;99.90;;;;;;5052525;28;20481;-74
2022/05/24 11:42:06;;;;;;;9.50;7.77;;;18.70;99.90;;;;;;5050997;28;20485;-73
2022/05/24 11:44:37;;;;;;;8.70;7.87;;;18.50;99.90;;;;;;5051195;28;20908;-74
2022/05/24 11:47:08;;;;;;;9.20;7.90;;;18.30;99.90;;;;;;5052655;28;20446;-74
2022/05/24 11:50:07;;;;;;;8.27;7.53;;;18.20;99.90;;;;;;5051306;28;20953;-74
2022/05/24 11:53:04;;;;;;;8.70;7.80;;;18.60;99.90;;;;;;5052514;28;20877;-73
2022/05/24 11:56:18;;;;;;;7.70;7.03;;;19.20;99.90;;;;;;5038696;28;20486;-75
2022/05/24 11:58:51;;;;;;;8.13;5.77;;;19.50;99.90;;;;;;5060734;28;20888;-72
2022/05/24 12:01:38;;;;;;;7.20;6.50;;;19.60;99.90;;;;;;5050630;28;20456;-72
2022/05/24 12:10:25;;;;;;;6.87;5.87;;;20.00;99.90;;;;;;5051900;28;20474;-73
2022/05/24 12:13:30;;;;;;;6.63;5.60;;;20.10;99.40;;;;;;5052213;28;20453;-73
2022/05/24 12:16:01;;;;;;;7.13;5.97;;;20.00;99.80;;;;;;5050686;28;20541;-73
2022/05/24 12:18:54;;;;;;;7.50;4.67;;;20.10;99.60;;;;;;5047383;28;20442;-74
2022/05/24 12:21:57;;;;;;;5.53;5.00;;;19.90;98.60;;;;;;5051086;28;20917;-74
2022/05/24 12:24:54;;;;;;;6.50;4.93;;;19.70;98.40;;;;;;5036161;28;20464;-74
2022/05/24 12:27:48;;;;;;;5.27;4.77;;;19.80;98.40;;;;;;5050889;28;20439;-74
2022/05/24 12:30:39;;;;;;;5.50;4.80;;;19.80;98.30;;;;;;5042850;28;20561;-74
2022/05/24 12:33:16;;;;;;;7.37;5.20;;;19.70;96.90;;;;;;5047645;28;20442;-74
2022/05/24 12:35:52;;;;;;;6.63;4.60;;;19.50;96.30;;;;;;5044482;28;20548;-74
2022/05/24 12:38:23;;;;;;;5.57;5.07;;;19.60;97.50;;;;;;5050701;28;20514;-73
2022/05/24 12:40:50;;;;;;;5.33;4.83;;;19.70;96.90;;;;;;5047409;28;20927;-74
2022/05/24 12:43:19;;;;;;;4.53;4.13;;;19.90;96.50;;;;;;5052082;28;20443;-74
2022/05/24 12:45:48;;;;;;;9.30;4.70;;;20.20;95.40;;;;;;5052228;28;20479;-74
2022/05/24 12:48:35;;;;;;;7.80;4.80;;;20.20;95.50;;;;;;5056250;28;20447;-73
2022/05/24 12:51:04;;;;;;;5.50;4.53;;;19.90;95.30;;;;;;5053754;28;20474;-74
2022/05/24 12:53:32;;;;;;;5.37;4.27;;;19.70;96.00;;;;;;5055369;28;20537;-73
2022/05/24 12:56:02;;;;;;;7.13;4.03;;;19.60;96.90;;;;;;5055203;28;21016;-74
2022/05/24 12:58:33;;;;;;;5.30;4.80;;;19.50;97.80;;;;;;5048432;28;20960;-74
2022/05/24 13:01:14;;;;;;;5.53;4.50;;;19.20;97.70;;;;;;5055243;28;20838;-74
2022/05/24 13:03:52;;;;;;;7.10;5.50;;;19.00;98.10;;;;;;5055090;28;20550;-74
2022/05/24 13:06:25;;;;;;;10.93;5.77;;;18.80;99.50;;;;;;5054973;28;20500;-73
2022/05/24 13:09:22;;;;;;;4.37;4.07;;;18.60;99.90;;;;;;5049983;28;20458;-74
2022/05/24 13:11:53;;;;;;;6.00;4.40;;;18.50;99.90;;;;;;5055470;28;20445;-74
2022/05/24 13:14:45;;;;;;;9.63;4.27;;;18.60;99.90;;;;;;5055414;28;20552;-75
2022/05/24 13:17:14;;;;;;;6.30;4.53;;;18.80;99.90;;;;;;5056077;28;20454;-74
2022/05/24 13:19:47;;;;;;;7.20;4.47;;;18.70;99.90;;;;;;5056989;28;20775;-74
2022/05/24 13:22:15;;;;;;;5.07;4.40;;;18.70;99.90;;;;;;5061370;28;20466;-74
2022/05/24 13:24:58;;;;;;;4.70;3.93;;;18.70;99.90;;;;;;5063146;28;20470;-74
2022/05/24 13:27:25;;;;;;;8.27;5.10;;;18.60;99.90;;;;;;5063523;28;20461;-74
2022/05/24 13:35:32;;;;;;;5.57;3.87;;;19.40;99.90;;;;;;5058337;28;20489;-74
2022/05/24 13:38:01;;;;;;;4.50;4.07;;;19.30;99.90;;;;;;5048272;28;20439;-75
2022/05/24 13:40:41;;;;;;;4.93;4.23;;;19.30;99.90;;;;;;5050065;28;20446;-75